This is the latest recevied weather packets stored in our database for station/object K7AEL. If no packets are shown the sender has not sent any weather packets the latest 1 day(s).
| Time | Temp. | Humidity | Pressure | Rain* | Wind** | Luminosity | Snow |
|---|---|---|---|---|---|---|---|
| 1778045006 | 18.33° C | 41% | 1015.1 hPa | 0 mm | 0.45 m/s, 254° | 0 W/m² | - |
| 1778044703 | 18.89° C | 40% | 1015.1 hPa | 0 mm | 0.45 m/s, 209° | 0 W/m² | - |
| 1778044399 | 18.89° C | 40% | 1015 hPa | 0 mm | 0.89 m/s, 263° | 0 W/m² | - |
| 1778044097 | 18.89° C | 38% | 1015.1 hPa | 0 mm | 1.34 m/s, 0° | 0 W/m² | - |
| 1778043794 | 18.89° C | 38% | 1014.9 hPa | 0 mm | 0.89 m/s, 312° | 0 W/m² | - |
| 1778043491 | 18.89° C | 39% | 1014.9 hPa | 0 mm | 0.89 m/s, 228° | 0 W/m² | - |
| 1778043187 | 18.89° C | 40% | 1014.9 hPa | 0 mm | 0.45 m/s, 255° | 0 W/m² | - |
| 1778042884 | 18.89° C | 39% | 1014.7 hPa | 0 mm | 1.34 m/s, 305° | 0 W/m² | - |
| 1778042582 | 18.89° C | 40% | 1014.8 hPa | 0 mm | 0.45 m/s, 249° | 0 W/m² | - |
| 1778042279 | 18.89° C | 40% | 1014.5 hPa | 0 mm | 0.89 m/s, 236° | 0 W/m² | - |
| 1778041976 | 18.89° C | 40% | 1014.7 hPa | 0 mm | 0.45 m/s, 234° | 0 W/m² | - |
| 1778041675 | 18.89° C | 40% | 1014.5 hPa | 0 mm | 0.45 m/s, 236° | 0 W/m² | - |
| 1778041374 | 19.44° C | 39% | 1014.5 hPa | 0 mm | 0 m/s | 0 W/m² | - |
| 1778041071 | 19.44° C | 39% | 1014.4 hPa | 0 mm | 0.45 m/s, 225° | 0 W/m² | - |
| 1778040768 | 19.44° C | 39% | 1014.2 hPa | 0 mm | 0.45 m/s, 231° | 0 W/m² | - |
| 1778040465 | 19.44° C | 39% | 1014.1 hPa | 0 mm | 0.45 m/s, 235° | 0 W/m² | - |
| 1778040162 | 19.44° C | 39% | 1014.1 hPa | 0 mm | 1.34 m/s, 256° | 0 W/m² | - |
| 1778039859 | 20° C | 39% | 1014.1 hPa | 0 mm | 0.89 m/s, 246° | 0 W/m² | - |
| 1778039555 | 20° C | 38% | 1013.9 hPa | 0 mm | 0.89 m/s, 306° | 0 W/m² | - |
| 1778039247 | 20° C | 37% | 1013.8 hPa | 0 mm | 0.45 m/s, 219° | 0 W/m² | - |
| 1778038944 | 20° C | 37% | 1013.6 hPa | 0 mm | 1.79 m/s, 315° | 0 W/m² | - |
| 1778038642 | 20° C | 41% | 1013.6 hPa | 0 mm | 0.89 m/s, 259° | 0 W/m² | - |
| 1778038339 | 20° C | 41% | 1013.5 hPa | 0 mm | 0 m/s | 0 W/m² | - |
| 1778038035 | 20° C | 41% | 1013.6 hPa | 0 mm | 0.89 m/s, 208° | 0 W/m² | - |
| 1778037732 | 20° C | 42% | 1013.4 hPa | 0 mm | 0.89 m/s, 246° | 0 W/m² | - |
* Rain latest hour (hover to see other rain measurements)
** Current wind speed in m/s (hover to see current wind gust speed)